Hyalite Weather Station

This weather station provides temperature, wind speed, gust or max wind speed, and wind direction at 9982ft near the summit of Flanders Mountain. This data can be used with temperature and precipitation data from the Shower Falls SNOTEL site. If the data has not been updated recently you can view it directly on datagarrison.com

Elevation
9982ft
Jump to table bottom
Date Time Temperature
deg F
RH, % Wind Speed Wind Gust Wind Direction
01/17/22 17:00 28.1 52 10 25 W - 259
01/17/22 16:00 28.6 52 14 28 W - 256
01/17/22 15:00 29.2 51 17 38 SW - 246
01/17/22 14:00 29.8 48 22 41 W - 269
01/17/22 13:00 31.2 44 24 51 W - 283
01/17/22 12:00 30.5 45 24 54 W - 274
01/17/22 11:00 30.2 44 25 48 W - 263
01/17/22 10:00 29.6 45 24 45 W - 264
01/17/22 09:00 28.7 46 24 44 W - 264
01/17/22 08:00 28.2 49 24 44 W - 264
01/17/22 07:00 28.7 47 26 47 W - 270
01/17/22 06:00 28.1 51 28 56 W - 257
01/17/22 05:00 28.1 52 27 47 W - 256
01/17/22 04:00 27.9 57 28 43 W - 249
01/17/22 03:00 27.1 65 25 47 W - 256
01/17/22 02:00 26.8 67 23 39 W - 260
01/17/22 01:00 27.1 65 29 44 W - 253
01/17/22 00:00 27.2 65 26 41 W - 249
01/16/22 23:00 27.8 65 24 37 W - 252
01/16/22 22:00 26.7 72 20 33 W - 253
01/16/22 21:00 26.6 71 22 38 W - 256
01/16/22 20:00 26.6 74 23 38 W - 257
01/16/22 19:00 26.5 66 20 39 W - 262
01/16/22 18:00 26.5 62 20 33 W - 259
01/16/22 17:00 26.6 59 18 32 W - 255
01/16/22 16:00 28.3 55 17 25 W - 256
01/16/22 15:00 28.9 53 14 23 W - 253
01/16/22 14:00 28.8 55 14 21 W - 256
01/16/22 13:00 27.1 57 14 22 W - 257
01/16/22 12:00 25.4 56 12 22 W - 253
01/16/22 11:00 24.1 55 14 25 W - 263
01/16/22 10:00 22.1 52 16 26 W - 262
01/16/22 09:00 22.0 56 18 29 W - 259
01/16/22 08:00 20.7 57 18 31 W - 260
01/16/22 07:00 21.0 57 17 27 W - 262
01/16/22 06:00 22.5 55 17 28 W - 257
01/16/22 05:00 24.3 51 20 37 W - 262
01/16/22 04:00 24.5 48 21 36 W - 259
01/16/22 03:00 24.8 50 22 39 W - 250
01/16/22 02:00 24.5 55 20 36 W - 253
01/16/22 01:00 25.0 55 21 41 W - 252
01/16/22 00:00 26.0 50 21 37 W - 253
01/15/22 23:00 25.9 48 22 35 W - 248
01/15/22 22:00 26.6 46 25 38 SW - 245
01/15/22 21:00 27.4 41 29 44 SW - 245
01/15/22 20:00 28.0 42 30 49 W - 248
01/15/22 19:00 28.5 44 30 50 W - 256
01/15/22 18:00 29.4 46 34 59 W - 270
01/15/22 17:00 29.8 45 31 59 W - 250
01/15/22 16:00 29.0 45 24 44 W - 259